Time;durP1;ratioP1;P1;durP2;ratioP2;P2;SDS_P1;SDS_P2;PMS_P1;PMS_P2;Temp;Humidity;BMP_temperature;BMP_pressure;BME280_temperature;BME280_humidity;BME280_pressure;Samples;Min_cycle;Max_cycle;Signal;HPM_P1;HPM_P2
2023/08/05 00:02:40;;;;;;;16.52;7.38;;;;;;;12.10;100.00;101489.88;10434882;28;20037;-78
2023/08/05 00:07:41;;;;;;;16.55;7.93;;;;;;;12.14;100.00;101481.34;10440223;28;20131;-75
2023/08/05 00:12:42;;;;;;;11.32;6.65;;;;;;;12.16;100.00;101473.53;10433654;28;20029;-74
2023/08/05 00:17:42;;;;;;;15.52;7.68;;;;;;;12.19;100.00;101473.69;10437754;28;20052;-74
2023/08/05 00:22:43;;;;;;;13.50;6.97;;;;;;;12.26;100.00;101467.03;10435434;28;20045;-75
2023/08/05 00:27:43;;;;;;;14.48;7.32;;;;;;;12.31;100.00;101468.19;10438079;28;20037;-75
2023/08/05 00:32:44;;;;;;;12.77;9.35;;;;;;;12.37;100.00;101454.44;10422425;28;20576;-75
2023/08/05 00:37:44;;;;;;;10.48;6.85;;;;;;;12.40;100.00;101457.22;10437654;28;20041;-75
2023/08/05 00:42:45;;;;;;;11.35;7.18;;;;;;;12.44;100.00;101449.59;10439980;28;20037;-75
2023/08/05 00:47:45;;;;;;;15.32;7.40;;;;;;;12.46;100.00;101442.69;10434949;28;20036;-76
2023/08/05 00:52:46;;;;;;;16.90;7.68;;;;;;;12.48;100.00;101437.50;10482393;28;20036;-76
2023/08/05 00:57:47;;;;;;;15.30;7.22;;;;;;;12.46;100.00;101436.53;10467487;28;20117;-76
2023/08/05 01:02:47;;;;;;;9.68;6.03;;;;;;;12.45;100.00;101438.25;10484710;28;20485;-76
2023/08/05 01:07:48;;;;;;;16.30;7.47;;;;;;;12.46;100.00;101431.28;10475405;28;20116;-76
2023/08/05 01:12:49;;;;;;;13.80;7.22;;;;;;;12.43;100.00;101418.91;10486140;28;20036;-76
2023/08/05 01:17:53;;;;;;;20.48;7.90;;;;;;;12.33;100.00;101409.66;10463264;28;20047;-76
2023/08/05 01:22:54;;;;;;;12.13;7.40;;;;;;;12.30;100.00;101412.16;10435543;28;20048;-76
2023/08/05 01:27:55;;;;;;;11.35;6.35;;;;;;;12.29;100.00;101406.84;10419840;28;20493;-75
2023/08/05 01:32:57;;;;;;;11.45;6.57;;;;;;;12.27;100.00;101401.50;10427729;28;20049;-79
2023/08/05 01:37:58;;;;;;;12.07;7.22;;;;;;;12.25;100.00;101407.50;10427711;28;20114;-78
2023/08/05 01:42:59;;;;;;;18.92;7.78;;;;;;;12.26;100.00;101394.44;10442394;28;20098;-78
2023/08/05 01:47:59;;;;;;;17.73;8.48;;;;;;;12.26;100.00;101393.56;10418584;28;20061;-78
2023/08/05 01:53:00;;;;;;;12.80;7.60;;;;;;;12.18;100.00;101394.09;10417235;28;20037;-78
2023/08/05 01:58:00;;;;;;;16.25;8.02;;;;;;;12.08;100.00;101398.78;10440144;28;20116;-78
2023/08/05 02:03:01;;;;;;;22.98;8.45;;;;;;;11.98;100.00;101405.28;10437003;28;20052;-78
2023/08/05 02:08:01;;;;;;;16.98;9.95;;;;;;;11.89;100.00;101414.47;10439130;28;20076;-78
2023/08/05 02:13:03;;;;;;;13.82;8.30;;;;;;;11.80;100.00;101405.22;10443039;28;20055;-78
2023/08/05 02:18:03;;;;;;;17.73;9.13;;;;;;;11.69;100.00;101407.31;10437891;28;20048;-78
2023/08/05 02:23:04;;;;;;;20.00;9.70;;;;;;;11.62;100.00;101400.81;10427240;28;20048;-78
2023/08/05 02:28:04;;;;;;;13.05;7.82;;;;;;;11.55;100.00;101406.56;10452419;28;20033;-78
2023/08/05 02:33:05;;;;;;;19.02;10.02;;;;;;;11.49;100.00;101404.53;10471592;28;20033;-78
2023/08/05 02:38:05;;;;;;;22.10;11.80;;;;;;;11.44;100.00;101398.16;10483086;28;20033;-78
2023/08/05 02:43:06;;;;;;;14.57;10.02;;;;;;;11.40;100.00;101394.47;10482067;28;20040;-78
2023/08/05 02:48:07;;;;;;;24.83;13.02;;;;;;;11.31;100.00;101378.25;10478361;28;20037;-78
2023/08/05 02:53:07;;;;;;;21.08;12.88;;;;;;;11.24;100.00;101378.75;10483852;28;20123;-78
2023/08/05 02:58:08;;;;;;;22.00;12.00;;;;;;;11.23;100.00;101374.31;10482740;28;20072;-78
2023/08/05 03:03:10;;;;;;;20.02;12.00;;;;;;;11.18;100.00;101370.56;10456623;28;20507;-78
2023/08/05 03:08:10;;;;;;;23.70;13.53;;;;;;;11.18;100.00;101363.63;10480073;28;20047;-78
2023/08/05 03:13:11;;;;;;;20.50;12.85;;;;;;;11.09;100.00;101364.00;10480083;27;20051;-78
2023/08/05 03:18:11;;;;;;;17.48;11.68;;;;;;;10.90;100.00;101354.28;10452823;28;20181;-78
2023/08/05 03:23:12;;;;;;;21.90;14.80;;;;;;;10.78;100.00;101345.75;10480714;28;20091;-78
2023/08/05 03:28:12;;;;;;;24.33;13.73;;;;;;;10.78;100.00;101366.72;10489238;28;20434;-78
2023/08/05 03:33:13;;;;;;;27.92;15.27;;;;;;;10.76;100.00;101373.56;10477949;28;20044;-77
2023/08/05 03:38:14;;;;;;;24.58;15.35;;;;;;;10.72;100.00;101360.31;10422201;28;20037;-78
2023/08/05 03:43:15;;;;;;;23.92;14.43;;;;;;;10.69;100.00;101351.38;10436798;28;20086;-78
2023/08/05 03:48:15;;;;;;;26.42;18.05;;;;;;;10.66;100.00;101349.50;10438611;28;20094;-78
2023/08/05 03:53:16;;;;;;;32.97;21.05;;;;;;;10.60;100.00;101338.69;10438619;28;20481;-78
2023/08/05 03:58:19;;;;;;;25.42;15.38;;;;;;;10.56;100.00;101332.38;10429446;28;20037;-77
2023/08/05 04:03:21;;;;;;;28.55;17.40;;;;;;;10.52;100.00;101333.03;10437075;28;20046;-77
2023/08/05 04:08:22;;;;;;;26.15;16.02;;;;;;;10.45;100.00;101336.13;10421504;28;20037;-77
2023/08/05 04:13:26;;;;;;;30.42;17.70;;;;;;;10.36;100.00;101312.03;10423479;28;20060;-77
2023/08/05 04:18:27;;;;;;;29.67;19.08;;;;;;;10.33;100.00;101304.00;10413411;28;20091;-77
2023/08/05 04:23:31;;;;;;;32.17;18.23;;;;;;;10.26;100.00;101300.16;10422423;28;20464;-77
2023/08/05 04:28:31;;;;;;;32.65;18.92;;;;;;;10.22;100.00;101309.53;10444325;28;20044;-77
2023/08/05 04:33:32;;;;;;;34.03;20.08;;;;;;;10.22;100.00;101306.03;10433472;28;20460;-77
2023/08/05 04:38:33;;;;;;;30.80;21.55;;;;;;;10.25;100.00;101298.38;10447303;28;20047;-76
2023/08/05 04:43:33;;;;;;;32.63;20.70;;;;;;;10.29;100.00;101282.91;10445643;28;20044;-77
2023/08/05 04:48:34;;;;;;;35.20;21.63;;;;;;;10.28;100.00;101286.34;10421512;28;20503;-78
2023/08/05 04:53:34;;;;;;;32.70;18.52;;;;;;;10.27;100.00;101273.19;10432586;28;20060;-79
2023/08/05 04:58:35;;;;;;;34.05;18.33;;;;;;;10.27;100.00;101261.00;10441427;28;20420;-78
2023/08/05 05:03:35;;;;;;;29.20;17.90;;;;;;;10.39;100.00;101259.88;10444088;28;20312;-78
2023/08/05 05:08:36;;;;;;;29.30;19.98;;;;;;;10.55;100.00;101261.66;10431271;28;20621;-79
2023/08/05 05:13:38;;;;;;;31.92;19.20;;;;;;;10.73;100.00;101266.94;10429827;28;20043;-79
2023/08/05 05:18:39;;;;;;;31.17;18.15;;;;;;;10.87;100.00;101258.13;10421899;28;20034;-78
2023/08/05 05:23:40;;;;;;;29.63;19.30;;;;;;;10.97;100.00;101258.59;10442406;28;20053;-78
2023/08/05 05:28:40;;;;;;;32.85;17.23;;;;;;;11.16;100.00;101240.38;10440151;28;20041;-78
2023/08/05 05:33:42;;;;;;;32.40;17.58;;;;;;;11.38;100.00;101241.47;10441871;28;20041;-77
2023/08/05 05:38:43;;;;;;;27.02;16.50;;;;;;;11.64;100.00;101255.00;10439348;28;20436;-77
2023/08/05 05:43:43;;;;;;;25.42;15.70;;;;;;;11.82;100.00;101248.84;10438611;28;20102;-77
2023/08/05 05:48:44;;;;;;;21.45;13.43;;;;;;;11.99;100.00;101250.56;10439965;28;20078;-78
2023/08/05 05:53:44;;;;;;;24.20;14.27;;;;;;;12.16;100.00;101253.13;10441727;28;20086;-77
2023/08/05 05:58:45;;;;;;;28.75;15.13;;;;;;;12.31;100.00;101253.84;10435656;28;20029;-78
2023/08/05 06:03:45;;;;;;;24.35;14.35;;;;;;;12.57;100.00;101242.75;10437980;28;20041;-78
2023/08/05 06:08:47;;;;;;;18.92;11.25;;;;;;;12.83;100.00;101236.03;10441236;28;20504;-78
2023/08/05 06:13:48;;;;;;;28.55;11.05;;;;;;;12.99;100.00;101231.47;10443866;28;20041;-78
2023/08/05 06:18:48;;;;;;;21.90;11.88;;;;;;;13.27;100.00;101236.19;10460340;28;20072;-77
2023/08/05 06:23:49;;;;;;;15.57;10.43;;;;;;;15.05;100.00;101233.41;10456201;28;20037;-77
2023/08/05 06:28:50;;;;;;;14.10;9.35;;;;;;;17.39;100.00;101221.06;10452967;28;20094;-78
2023/08/05 06:33:51;;;;;;;8.27;5.35;;;;;;;19.44;100.00;101173.22;10443184;28;20041;-78
2023/08/05 06:38:51;;;;;;;6.60;4.73;;;;;;;20.92;100.00;101129.91;10438017;28;20064;-78
2023/08/05 06:43:52;;;;;;;7.33;4.87;;;;;;;20.60;100.00;101151.72;10441752;28;20515;-77
2023/08/05 06:48:52;;;;;;;12.30;9.70;;;;;;;20.48;100.00;101150.72;10471047;28;20041;-76
2023/08/05 06:53:53;;;;;;;10.37;6.70;;;;;;;21.04;100.00;101153.97;10424207;28;20127;-76
2023/08/05 06:58:54;;;;;;;13.10;4.57;;;;;;;22.63;100.00;101176.25;10474284;28;20048;-76
2023/08/05 07:03:54;;;;;;;8.55;5.53;;;;;;;22.31;100.00;101201.91;10441581;28;20041;-75
2023/08/05 07:08:55;;;;;;;12.30;6.03;;;;;;;21.66;100.00;101189.09;10441096;28;20132;-74
2023/08/05 07:13:55;;;;;;;9.80;4.60;;;;;;;20.35;100.00;101186.00;10437147;28;20159;-76
2023/08/05 07:18:56;;;;;;;7.77;4.80;;;;;;;19.75;100.00;101172.78;10469363;28;20040;-77
2023/08/05 07:23:56;;;;;;;10.10;5.17;;;;;;;18.98;100.00;101161.84;10424548;28;20120;-77
2023/08/05 07:28:57;;;;;;;7.20;4.28;;;;;;;18.72;100.00;101135.72;10438466;28;20072;-76
2023/08/05 07:33:57;;;;;;;6.57;4.27;;;;;;;18.64;100.00;101117.91;10438286;28;20037;-77
2023/08/05 07:39:00;;;;;;;8.37;4.83;;;;;;;19.05;100.00;101126.59;10427729;28;20048;-78
2023/08/05 07:44:01;;;;;;;10.98;6.70;;;;;;;19.32;100.00;101112.00;10435469;28;20068;-78
2023/08/05 07:49:03;;;;;;;6.87;5.67;;;;;;;20.00;100.00;101115.63;10427332;28;20513;-77
2023/08/05 07:54:04;;;;;;;7.30;4.53;;;;;;;20.92;100.00;101128.16;10439362;28;20069;-78
2023/08/05 07:59:04;;;;;;;8.93;4.90;;;;;;;21.30;100.00;101137.31;10434145;28;20144;-77
2023/08/05 08:04:07;;;;;;;10.40;5.63;;;;;;;21.32;100.00;101138.22;10440145;28;20151;-77
2023/08/05 08:09:07;;;;;;;9.13;4.90;;;;;;;21.15;100.00;101129.22;10448763;28;20034;-78
2023/08/05 08:14:08;;;;;;;7.00;4.07;;;;;;;21.23;100.00;101125.75;10433372;28;20461;-77
2023/08/05 08:19:09;;;;;;;8.40;5.67;;;;;;;21.02;100.00;101117.59;10445442;28;20037;-77
2023/08/05 08:24:09;;;;;;;9.87;5.07;;;;;;;21.63;100.00;101124.28;10442296;28;20366;-78
2023/08/05 08:29:10;;;;;;;5.63;3.90;;;;;;;21.11;100.00;101105.25;10434198;28;20078;-77
2023/08/05 08:34:14;;;;;;;7.27;4.07;;;;;;;22.61;100.00;101090.00;10438660;28;20048;-77
2023/08/05 08:39:14;;;;;;;4.97;3.08;;;;;;;24.87;100.00;101118.75;10420069;28;20036;-77
2023/08/05 08:44:16;;;;;;;3.70;2.20;;;;;;;25.66;100.00;101117.16;10409507;28;20041;-75
2023/08/05 08:49:16;;;;;;;5.57;3.35;;;;;;;26.02;100.00;101120.28;10431846;28;20477;-76
2023/08/05 08:54:17;;;;;;;5.87;2.70;;;;;;;26.50;99.39;101111.66;10460826;28;20032;-78
2023/08/05 08:59:18;;;;;;;8.63;4.03;;;;;;;25.64;100.00;101095.75;10440169;28;20041;-77
2023/08/05 09:04:18;;;;;;;5.67;3.57;;;;;;;25.47;100.00;101103.09;10423231;28;20083;-77
2023/08/05 09:09:19;;;;;;;5.07;2.93;;;;;;;24.75;100.00;101084.06;10441352;28;20130;-78
2023/08/05 09:14:19;;;;;;;5.67;2.50;;;;;;;23.55;100.00;101076.63;10482793;28;20040;-78
2023/08/05 09:19:24;;;;;;;8.80;2.97;;;;;;;23.95;100.00;101058.66;10463236;28;20499;-80
2023/08/05 09:24:25;;;;;;;4.30;2.00;;;;;;;25.13;99.99;101055.19;10457125;28;20029;-78
2023/08/05 09:29:26;;;;;;;5.43;2.23;;;;;;;25.52;100.00;101053.00;10484284;28;20055;-78
2023/08/05 09:34:37;;;;;;;3.90;2.55;;;;;;;26.27;100.00;101028.81;10453991;28;20033;-78
2023/08/05 09:39:46;;;;;;;5.80;2.20;;;;;;;24.13;100.00;101030.97;10479200;28;20109;-77
2023/08/05 09:44:55;;;;;;;3.92;1.75;;;;;;;22.42;100.00;101010.84;10498997;28;20090;-78
2023/08/05 09:49:58;;;;;;;3.80;2.03;;;;;;;22.20;100.00;101004.59;10490670;28;20510;-77
2023/08/05 09:55:10;;;;;;;3.33;2.08;;;;;;;22.36;100.00;100997.50;10482892;28;20044;-77
2023/08/05 10:00:11;;;;;;;3.78;1.50;;;;;;;22.58;100.00;100989.56;10482944;28;20438;-78
2023/08/05 10:05:12;;;;;;;6.78;2.88;;;;;;;22.22;100.00;100994.81;10483169;28;20038;-77
2023/08/05 10:10:17;;;;;;;4.20;1.80;;;;;;;21.59;100.00;100987.50;10484259;28;20033;-76
2023/08/05 10:15:28;;;;;;;2.58;1.25;;;;;;;21.31;100.00;100965.22;10478039;28;20041;-76
2023/08/05 10:20:37;;;;;;;3.47;1.55;;;;;;;20.83;100.00;100956.06;10483821;28;20073;-78
2023/08/05 10:25:42;;;;;;;3.10;2.00;;;;;;;20.51;100.00;100953.16;10481595;28;20036;-77
2023/08/05 10:30:43;;;;;;;3.15;1.75;;;;;;;21.35;100.00;100938.59;10448704;28;20075;-76
2023/08/05 10:35:43;;;;;;;2.77;1.90;;;;;;;23.07;100.00;100935.22;10479805;28;20105;-77
2023/08/05 10:41:02;;;;;;;4.47;2.10;;;;;;;24.12;100.00;100925.81;10481398;28;20036;-77
2023/08/05 10:46:05;;;;;;;6.32;2.40;;;;;;;24.84;100.00;100922.53;10479547;28;20465;-77
2023/08/05 10:51:12;;;;;;;3.72;3.17;;;;;;;25.93;100.00;100919.34;10477588;28;20048;-76
2023/08/05 10:56:13;;;;;;;8.50;2.50;;;;;;;25.13;95.73;100915.97;10484214;28;20044;-77
2023/08/05 11:01:14;;;;;;;9.65;2.67;;;;;;;23.07;100.00;100911.19;10476888;28;20029;-77
2023/08/05 11:06:15;;;;;;;2.43;2.10;;;;;;;22.14;100.00;100898.88;10484223;28;20404;-77
2023/08/05 11:11:16;;;;;;;4.07;2.20;;;;;;;20.98;100.00;100899.44;10472435;28;20043;-77
2023/08/05 11:16:17;;;;;;;9.90;3.53;;;;;;;18.72;100.00;100817.59;10481660;28;20036;-77
2023/08/05 11:21:17;;;;;;;10.00;5.23;;;;;;;19.64;100.00;100817.78;10475559;28;20477;-76
2023/08/05 11:26:20;;;;;;;8.13;4.10;;;;;;;21.03;100.00;100808.97;10482732;28;20064;-76
2023/08/05 11:31:24;;;;;;;5.25;3.38;;;;;;;22.87;100.00;100853.44;10482088;28;20033;-76
2023/08/05 11:36:25;;;;;;;7.80;4.28;;;;;;;23.11;100.00;100850.69;10474513;28;20512;-77
2023/08/05 11:41:26;;;;;;;6.50;3.30;;;;;;;22.56;100.00;100847.31;10474366;28;20041;-77
2023/08/05 11:46:28;;;;;;;5.47;3.83;;;;;;;23.56;100.00;100832.66;10480132;28;20043;-77
2023/08/05 11:51:45;;;;;;;5.70;3.47;;;;;;;23.56;100.00;100831.75;10467631;28;20274;-77
2023/08/05 11:56:45;;;;;;;3.63;2.22;;;;;;;22.47;100.00;100840.22;10465135;28;20025;-77
2023/08/05 12:01:46;;;;;;;6.37;3.40;;;;;;;20.92;100.00;100837.31;10480850;28;20032;-77
2023/08/05 12:06:46;;;;;;;6.00;3.20;;;;;;;19.82;100.00;100834.75;10447611;28;20059;-77
2023/08/05 12:11:47;;;;;;;3.40;2.53;;;;;;;19.08;100.00;100827.78;10481651;28;20151;-77
2023/08/05 12:16:48;;;;;;;4.43;2.85;;;;;;;18.75;100.00;100839.72;10474253;28;20044;-78
2023/08/05 12:21:48;;;;;;;5.70;2.88;;;;;;;18.25;100.00;100842.53;10465172;28;20542;-77
2023/08/05 12:26:49;;;;;;;4.63;2.65;;;;;;;17.94;100.00;100828.75;10472101;28;20495;-77
2023/08/05 12:31:49;;;;;;;4.75;2.38;;;;;;;17.47;100.00;100817.34;10464864;28;20048;-76
2023/08/05 12:36:50;;;;;;;5.25;2.80;;;;;;;17.01;100.00;100802.38;10462085;28;20048;-78
2023/08/05 12:41:50;;;;;;;4.93;3.25;;;;;;;16.63;100.00;100783.94;10438069;28;20051;-77
2023/08/05 12:46:52;;;;;;;6.55;3.05;;;;;;;16.41;100.00;100745.63;10474270;28;20683;-78
2023/08/05 12:51:53;;;;;;;5.60;3.20;;;;;;;16.40;100.00;100706.88;10504018;28;20056;-77
2023/08/05 12:56:53;;;;;;;6.78;2.92;;;;;;;16.61;100.00;100724.91;10481207;28;20045;-78
2023/08/05 13:01:54;;;;;;;5.88;2.80;;;;;;;16.91;100.00;100715.78;10447921;28;20128;-79
2023/08/05 13:06:55;;;;;;;5.18;3.35;;;;;;;16.99;100.00;100722.16;10445635;28;20093;-79
2023/08/05 13:11:56;;;;;;;3.83;2.50;;;;;;;16.83;100.00;100710.38;10441675;28;20037;-80
2023/08/05 13:16:56;;;;;;;7.40;3.67;;;;;;;16.41;100.00;100693.69;10467162;28;20044;-80
2023/08/05 13:21:57;;;;;;;7.22;3.50;;;;;;;16.07;100.00;100702.63;10475260;28;20037;-79
2023/08/05 13:26:57;;;;;;;8.23;3.00;;;;;;;15.79;100.00;100700.19;10470347;28;20044;-79
2023/08/05 13:31:58;;;;;;;5.63;4.30;;;;;;;15.73;100.00;100694.78;10486619;28;20116;-79
2023/08/05 13:36:59;;;;;;;6.25;3.63;;;;;;;15.59;100.00;100712.94;10483857;28;20076;-79
2023/08/05 13:41:59;;;;;;;9.05;5.55;;;;;;;15.48;100.00;100709.13;10487181;28;20044;-79
2023/08/05 13:47:00;;;;;;;7.93;4.80;;;;;;;15.49;100.00;100717.06;10483393;28;20132;-78
2023/08/05 13:52:00;;;;;;;7.32;4.60;;;;;;;15.85;100.00;100717.94;10486574;28;20056;-78
2023/08/05 13:57:02;;;;;;;9.07;4.10;;;;;;;16.24;100.00;100697.72;10483846;28;20127;-79
2023/08/05 14:02:02;;;;;;;6.83;3.93;;;;;;;16.33;100.00;100689.97;10485588;28;20143;-79
2023/08/05 14:07:03;;;;;;;12.95;4.93;;;;;;;16.32;100.00;100698.75;10486627;28;20048;-79
2023/08/05 14:12:04;;;;;;;6.53;4.20;;;;;;;16.28;100.00;100700.47;10479764;28;20047;-80
2023/08/05 14:17:05;;;;;;;8.18;4.22;;;;;;;16.48;100.00;100709.66;10486183;28;20032;-79
2023/08/05 14:22:05;;;;;;;7.20;4.53;;;;;;;16.61;100.00;100679.09;10484783;28;20054;-78
2023/08/05 14:27:06;;;;;;;9.98;6.47;;;;;;;16.86;100.00;100672.53;10481954;28;20040;-79
2023/08/05 14:32:07;;;;;;;8.25;3.72;;;;;;;17.11;100.00;100671.28;10470412;28;20070;-79
2023/08/05 14:37:07;;;;;;;4.95;2.85;;;;;;;17.04;100.00;100661.44;10485155;28;20123;-78
2023/08/05 14:42:08;;;;;;;6.43;3.35;;;;;;;16.83;100.00;100656.63;10474163;28;20489;-78
2023/08/05 14:47:08;;;;;;;4.78;3.05;;;;;;;16.65;100.00;100643.97;10482291;28;20029;-79
2023/08/05 14:52:09;;;;;;;5.95;4.15;;;;;;;16.55;100.00;100642.88;10482686;28;20037;-78
2023/08/05 14:57:10;;;;;;;3.95;2.90;;;;;;;16.61;100.00;100643.00;10484243;28;20431;-79
2023/08/05 15:02:10;;;;;;;6.05;2.97;;;;;;;16.62;100.00;100625.41;10484473;28;20058;-79
2023/08/05 15:07:11;;;;;;;5.80;4.20;;;;;;;16.66;100.00;100614.91;10482931;28;20168;-79
2023/08/05 15:12:11;;;;;;;7.60;3.33;;;;;;;16.81;100.00;100616.06;10483510;28;20382;-79
2023/08/05 15:17:12;;;;;;;7.30;2.92;;;;;;;17.38;100.00;100606.47;10483153;28;20043;-80
2023/08/05 15:22:13;;;;;;;5.05;3.25;;;;;;;18.62;100.00;100583.34;10471382;28;20037;-80
2023/08/05 15:27:13;;;;;;;3.92;2.58;;;;;;;19.48;100.00;100546.03;10478751;28;20479;-80
2023/08/05 15:32:14;;;;;;;6.03;2.83;;;;;;;19.66;100.00;100539.06;10478352;28;20048;-80
2023/08/05 15:37:14;;;;;;;3.35;2.75;;;;;;;19.34;100.00;100534.47;10482223;28;20068;-81
2023/08/05 15:42:15;;;;;;;5.38;2.47;;;;;;;18.85;100.00;100530.56;10483189;28;20479;-80
2023/08/05 15:47:15;;;;;;;5.45;3.13;;;;;;;18.39;100.00;100540.72;10470462;28;20040;-78
2023/08/05 15:52:16;;;;;;;8.30;1.70;;;;;;;18.27;100.00;100546.75;10454872;28;20063;-78
2023/08/05 15:57:17;;;;;;;4.55;2.50;;;;;;;18.74;100.00;100538.41;10471304;28;20044;-79
2023/08/05 16:02:18;;;;;;;2.85;1.50;;;;;;;18.30;100.00;100554.75;10454584;28;20389;-81
2023/08/05 16:07:18;;;;;;;3.72;1.42;;;;;;;17.94;100.00;100550.78;10432656;28;20397;-81
2023/08/05 16:12:19;;;;;;;3.60;1.83;;;;;;;17.73;100.00;100537.31;10396614;28;20037;-78
2023/08/05 16:17:19;;;;;;;3.08;1.25;;;;;;;17.56;100.00;100531.75;10433283;28;20041;-79
2023/08/05 16:22:21;;;;;;;3.85;2.67;;;;;;;17.42;100.00;100531.59;10437250;28;20048;-78
2023/08/05 16:27:21;;;;;;;3.93;3.00;;;;;;;17.34;100.00;100519.09;10442388;28;20044;-80
2023/08/05 16:32:22;;;;;;;2.92;1.90;;;;;;;17.15;100.00;100514.47;10449665;28;20767;-79
2023/08/05 16:37:22;;;;;;;2.67;1.83;;;;;;;16.86;100.00;100517.50;10425975;28;20043;-80
2023/08/05 16:42:23;;;;;;;3.33;1.88;;;;;;;16.57;100.00;100504.69;10446925;28;20045;-80
2023/08/05 16:47:23;;;;;;;4.88;2.30;;;;;;;16.29;100.00;100500.66;10477358;28;20391;-80
2023/08/05 16:52:24;;;;;;;4.93;1.98;;;;;;;16.22;100.00;100507.59;10484199;28;20040;-79
2023/08/05 16:57:24;;;;;;;4.32;1.67;;;;;;;16.31;100.00;100503.34;10487175;28;20137;-79
2023/08/05 17:02:25;;;;;;;5.03;1.67;;;;;;;16.37;100.00;100493.75;10481053;28;20456;-80
2023/08/05 17:07:25;;;;;;;4.13;1.85;;;;;;;16.47;100.00;100491.28;10512343;28;20130;-80
2023/08/05 17:12:26;;;;;;;3.85;1.48;;;;;;;16.35;100.00;100481.41;10486205;28;20044;-79
2023/08/05 17:17:26;;;;;;;5.07;2.10;;;;;;;16.06;100.00;100490.56;10487724;28;20228;-80
2023/08/05 17:22:27;;;;;;;2.85;2.08;;;;;;;15.86;100.00;100490.16;10497528;28;20535;-79
2023/08/05 17:27:27;;;;;;;3.90;1.83;;;;;;;15.78;100.00;100481.19;10486666;28;20032;-81
2023/08/05 17:32:28;;;;;;;3.00;1.73;;;;;;;15.66;100.00;100473.91;10468613;28;20090;-81
2023/08/05 17:37:28;;;;;;;2.22;1.60;;;;;;;15.65;100.00;100469.47;10483870;28;20467;-80
2023/08/05 17:42:29;;;;;;;13.30;1.67;;;;;;;15.63;100.00;100458.00;10487402;28;20046;-79
2023/08/05 17:47:30;;;;;;;4.10;2.38;;;;;;;15.82;100.00;100444.31;10466560;28;20064;-80
2023/08/05 17:52:32;;;;;;;3.78;2.03;;;;;;;15.99;100.00;100427.94;10485074;28;20033;-80
2023/08/05 17:57:32;;;;;;;3.38;2.08;;;;;;;15.95;100.00;100429.66;10483042;28;20374;-81
2023/08/05 18:02:33;;;;;;;4.18;2.22;;;;;;;15.80;100.00;100417.03;10481925;28;20041;-80
2023/08/05 18:07:33;;;;;;;4.93;2.35;;;;;;;15.55;100.00;100413.03;10467164;28;20058;-79
2023/08/05 18:12:34;;;;;;;7.05;3.03;;;;;;;15.40;100.00;100411.88;10481514;28;20039;-80
2023/08/05 18:17:34;;;;;;;3.67;2.47;;;;;;;15.25;100.00;100420.31;10484388;28;20056;-80
2023/08/05 18:22:35;;;;;;;6.68;2.63;;;;;;;15.06;100.00;100419.06;10476897;28;21515;-80
2023/08/05 18:27:35;;;;;;;3.85;2.03;;;;;;;14.85;100.00;100419.44;10481892;28;20047;-80
2023/08/05 18:32:36;;;;;;;3.53;2.05;;;;;;;14.73;100.00;100406.88;10484296;28;20120;-79
2023/08/05 18:37:36;;;;;;;5.13;3.08;;;;;;;14.67;100.00;100406.72;10484215;28;20361;-80
2023/08/05 18:42:37;;;;;;;8.23;3.15;;;;;;;14.44;100.00;100396.53;10479115;28;20032;-80
2023/08/05 18:47:37;;;;;;;4.38;3.00;;;;;;;14.17;100.00;100400.25;10482016;28;20048;-79
2023/08/05 18:52:38;;;;;;;7.82;3.03;;;;;;;13.95;100.00;100399.69;10477921;28;20190;-79
2023/08/05 18:57:38;;;;;;;8.07;3.38;;;;;;;13.79;100.00;100395.75;10480609;28;20112;-79
2023/08/05 19:02:39;;;;;;;7.03;3.83;;;;;;;13.74;100.00;100402.63;10483494;28;20496;-80
2023/08/05 19:07:40;;;;;;;5.88;3.30;;;;;;;13.68;100.00;100391.94;10453120;28;20123;-79
2023/08/05 19:12:41;;;;;;;4.97;3.58;;;;;;;13.64;100.00;100387.44;10482238;28;20040;-80
2023/08/05 19:17:41;;;;;;;8.57;4.20;;;;;;;13.68;100.00;100388.44;10471922;28;20094;-80
2023/08/05 19:22:45;;;;;;;10.45;3.85;;;;;;;13.73;100.00;100384.19;10435070;28;22163;-79
2023/08/05 19:27:46;;;;;;;5.13;3.17;;;;;;;13.84;100.00;100376.56;10482498;28;20032;-80
2023/08/05 19:32:46;;;;;;;6.03;3.10;;;;;;;13.95;100.00;100373.38;10449770;28;20040;-79
2023/08/05 19:37:47;;;;;;;12.10;5.15;;;;;;;14.01;100.00;100359.47;10441266;28;20040;-80
2023/08/05 19:42:47;;;;;;;7.50;4.22;;;;;;;14.05;100.00;100369.22;10416879;28;20493;-80
2023/08/05 19:47:48;;;;;;;8.43;3.15;;;;;;;14.05;100.00;100363.97;10439430;28;20123;-79
2023/08/05 19:52:48;;;;;;;7.53;3.83;;;;;;;14.03;100.00;100359.53;10434877;28;20136;-79
2023/08/05 19:57:49;;;;;;;8.63;3.05;;;;;;;14.07;100.00;100361.41;10440153;28;20055;-79
2023/08/05 20:02:49;;;;;;;5.00;2.80;;;;;;;14.12;100.00;100348.34;10439729;28;20048;-80
2023/08/05 20:07:50;;;;;;;4.35;2.78;;;;;;;14.17;100.00;100347.63;10436163;28;20084;-79
2023/08/05 20:12:51;;;;;;;4.10;2.50;;;;;;;14.15;100.00;100337.88;10437994;28;20045;-80
2023/08/05 20:17:51;;;;;;;7.65;3.58;;;;;;;14.19;100.00;100327.50;10470325;28;20053;-81
2023/08/05 20:22:52;;;;;;;7.05;3.38;;;;;;;14.03;100.00;100334.09;10479950;28;20119;-80
2023/08/05 20:27:53;;;;;;;6.18;3.10;;;;;;;13.81;100.00;100332.69;10468523;28;20070;-80
2023/08/05 20:32:55;;;;;;;6.07;3.08;;;;;;;13.76;100.00;100329.03;10470833;28;20061;-80
2023/08/05 20:37:56;;;;;;;4.72;2.67;;;;;;;13.61;100.00;100330.41;10480358;28;20044;-80
2023/08/05 20:42:56;;;;;;;4.18;2.53;;;;;;;13.62;100.00;100332.19;10449448;28;20123;-79
2023/08/05 20:47:57;;;;;;;5.60;2.92;;;;;;;13.68;100.00;100339.34;10426967;28;20041;-79
2023/08/05 20:52:57;;;;;;;6.00;3.75;;;;;;;13.72;100.00;100330.69;10436725;28;20128;-79
2023/08/05 20:57:58;;;;;;;5.55;3.65;;;;;;;13.83;100.00;100327.44;10439924;28;20358;-79
2023/08/05 21:02:59;;;;;;;7.45;3.40;;;;;;;13.85;100.00;100320.47;10439283;28;20548;-80
2023/08/05 21:07:59;;;;;;;6.35;2.78;;;;;;;13.95;100.00;100310.25;10440931;28;20174;-79
2023/08/05 21:13:00;;;;;;;8.52;4.05;;;;;;;14.01;100.00;100306.84;10444252;28;20106;-79
2023/08/05 21:18:00;;;;;;;4.88;2.70;;;;;;;13.94;100.00;100307.56;10444016;28;20041;-79
2023/08/05 21:23:01;;;;;;;4.40;2.47;;;;;;;13.87;100.00;100308.25;10443586;28;20491;-79
2023/08/05 21:28:01;;;;;;;5.68;2.60;;;;;;;13.79;100.00;100300.19;10446027;28;20225;-80
2023/08/05 21:33:02;;;;;;;13.38;3.92;;;;;;;13.72;100.00;100290.38;10432093;28;20036;-80
2023/08/05 21:38:03;;;;;;;7.13;3.38;;;;;;;13.69;100.00;100299.03;10428034;28;20029;-79
2023/08/05 21:43:03;;;;;;;8.13;2.75;;;;;;;13.60;100.00;100291.81;10445417;28;20102;-79
2023/08/05 21:48:04;;;;;;;6.55;3.22;;;;;;;13.59;100.00;100282.16;10441400;28;20033;-78
2023/08/05 21:53:05;;;;;;;5.05;3.65;;;;;;;13.58;100.00;100274.22;10444163;28;20507;-79
2023/08/05 21:58:06;;;;;;;4.95;2.60;;;;;;;13.61;100.00;100271.66;10443353;28;20045;-79
2023/08/05 22:03:06;;;;;;;4.97;2.72;;;;;;;13.64;100.00;100255.97;10444405;28;20052;-80
2023/08/05 22:08:07;;;;;;;5.50;2.60;;;;;;;13.70;100.00;100252.63;10441967;28;20044;-79
2023/08/05 22:13:08;;;;;;;3.22;1.95;;;;;;;13.82;100.00;100249.38;10440895;28;20052;-79
2023/08/05 22:18:08;;;;;;;7.13;3.03;;;;;;;13.83;100.00;100231.03;10438637;28;20067;-79
2023/08/05 22:23:09;;;;;;;5.80;2.58;;;;;;;13.78;100.00;100220.38;10438363;28;20128;-79
2023/08/05 22:28:09;;;;;;;5.75;2.72;;;;;;;13.69;100.00;100209.63;10443135;28;20508;-80
2023/08/05 22:33:10;;;;;;;5.57;3.20;;;;;;;13.57;100.00;100201.44;10440397;28;20463;-80
2023/08/05 22:38:10;;;;;;;7.07;3.83;;;;;;;13.35;100.00;100193.00;10443023;28;20512;-81